sensor_id;sensor_type;location;lat;lon;timestamp;temperature;humidity
19344;DHT22;9808;52.402;16.678;2022-08-11T00:00:07;15.20;99.90
19344;DHT22;9808;52.402;16.678;2022-08-11T00:02:41;15.20;99.90
19344;DHT22;9808;52.402;16.678;2022-08-11T00:05:13;15.20;99.90
19344;DHT22;9808;52.402;16.678;2022-08-11T00:10:16;15.20;99.90
19344;DHT22;9808;52.402;16.678;2022-08-11T00:12:56;15.70;99.90
19344;DHT22;9808;52.402;16.678;2022-08-11T00:15:25;15.30;99.90
19344;DHT22;9808;52.402;16.678;2022-08-11T00:18:02;15.30;99.90
19344;DHT22;9808;52.402;16.678;2022-08-11T00:20:34;15.30;99.90
19344;DHT22;9808;52.402;16.678;2022-08-11T00:23:07;15.40;99.90
19344;DHT22;9808;52.402;16.678;2022-08-11T00:25:46;15.40;99.90
19344;DHT22;9808;52.402;16.678;2022-08-11T00:28:31;15.50;99.90
19344;DHT22;9808;52.402;16.678;2022-08-11T00:31:02;15.50;99.90
19344;DHT22;9808;52.402;16.678;2022-08-11T00:33:42;15.50;99.90
19344;DHT22;9808;52.402;16.678;2022-08-11T00:36:14;15.50;99.90
19344;DHT22;9808;52.402;16.678;2022-08-11T00:38:43;15.50;99.90
19344;DHT22;9808;52.402;16.678;2022-08-11T00:41:33;15.50;99.90
19344;DHT22;9808;52.402;16.678;2022-08-11T00:47:23;15.50;99.90
19344;DHT22;9808;52.402;16.678;2022-08-11T00:50:22;15.60;99.90
19344;DHT22;9808;52.402;16.678;2022-08-11T00:56:15;15.50;99.90
19344;DHT22;9808;52.402;16.678;2022-08-11T00:58:58;15.50;99.90
19344;DHT22;9808;52.402;16.678;2022-08-11T01:02:38;15.50;99.90
19344;DHT22;9808;52.402;16.678;2022-08-11T01:08:06;15.50;99.90
19344;DHT22;9808;52.402;16.678;2022-08-11T01:10:47;15.40;99.90
19344;DHT22;9808;52.402;16.678;2022-08-11T01:21:15;15.80;99.90
19344;DHT22;9808;52.402;16.678;2022-08-11T01:36:01;15.20;99.90
19344;DHT22;9808;52.402;16.678;2022-08-11T01:38:30;15.20;99.90
19344;DHT22;9808;52.402;16.678;2022-08-11T01:41:16;15.20;99.90
19344;DHT22;9808;52.402;16.678;2022-08-11T01:49:42;15.10;99.90
19344;DHT22;9808;52.402;16.678;2022-08-11T01:52:40;15.10;99.90
19344;DHT22;9808;52.402;16.678;2022-08-11T01:55:17;15.30;99.90
19344;DHT22;9808;52.402;16.678;2022-08-11T02:00:44;15.00;99.90
19344;DHT22;9808;52.402;16.678;2022-08-11T02:03:23;14.90;99.90
19344;DHT22;9808;52.402;16.678;2022-08-11T02:09:00;14.80;99.90
19344;DHT22;9808;52.402;16.678;2022-08-11T02:11:32;14.70;99.90
19344;DHT22;9808;52.402;16.678;2022-08-11T02:14:48;14.60;99.90
19344;DHT22;9808;52.402;16.678;2022-08-11T02:20:18;14.50;99.90
19344;DHT22;9808;52.402;16.678;2022-08-11T02:23:20;14.50;99.90
19344;DHT22;9808;52.402;16.678;2022-08-11T02:27:13;14.40;99.90
19344;DHT22;9808;52.402;16.678;2022-08-11T02:29:46;14.30;99.90
19344;DHT22;9808;52.402;16.678;2022-08-11T02:32:23;14.30;99.90
19344;DHT22;9808;52.402;16.678;2022-08-11T02:38:17;14.20;99.90
19344;DHT22;9808;52.402;16.678;2022-08-11T02:41:04;14.10;99.90
19344;DHT22;9808;52.402;16.678;2022-08-11T02:47:01;14.00;99.90
19344;DHT22;9808;52.402;16.678;2022-08-11T02:49:43;13.90;99.90
19344;DHT22;9808;52.402;16.678;2022-08-11T02:58:54;13.80;99.90
19344;DHT22;9808;52.402;16.678;2022-08-11T03:01:55;13.70;99.90
19344;DHT22;9808;52.402;16.678;2022-08-11T03:04:39;13.70;99.90
19344;DHT22;9808;52.402;16.678;2022-08-11T03:07:24;13.70;99.90
19344;DHT22;9808;52.402;16.678;2022-08-11T03:13:16;13.60;99.90
19344;DHT22;9808;52.402;16.678;2022-08-11T03:16:20;13.50;99.90
19344;DHT22;9808;52.402;16.678;2022-08-11T03:19:21;13.50;99.90
19344;DHT22;9808;52.402;16.678;2022-08-11T03:22:20;13.50;99.90
19344;DHT22;9808;52.402;16.678;2022-08-11T03:24:51;13.40;99.90
19344;DHT22;9808;52.402;16.678;2022-08-11T03:28:10;13.40;99.90
19344;DHT22;9808;52.402;16.678;2022-08-11T03:30:41;13.30;99.90
19344;DHT22;9808;52.402;16.678;2022-08-11T03:33:20;13.30;99.90
19344;DHT22;9808;52.402;16.678;2022-08-11T03:39:55;13.20;99.90
19344;DHT22;9808;52.402;16.678;2022-08-11T03:42:42;13.20;99.90
19344;DHT22;9808;52.402;16.678;2022-08-11T03:45:34;13.20;99.90
19344;DHT22;9808;52.402;16.678;2022-08-11T03:48:18;13.10;99.90
19344;DHT22;9808;52.402;16.678;2022-08-11T03:51:44;14.20;99.90
19344;DHT22;9808;52.402;16.678;2022-08-11T03:54:04;13.80;99.90
19344;DHT22;9808;52.402;16.678;2022-08-11T04:17:07;13.00;99.90
19344;DHT22;9808;52.402;16.678;2022-08-11T04:20:12;13.00;99.90
19344;DHT22;9808;52.402;16.678;2022-08-11T04:25:28;13.00;99.90
19344;DHT22;9808;52.402;16.678;2022-08-11T04:31:18;13.10;99.90
19344;DHT22;9808;52.402;16.678;2022-08-11T04:52:25;13.60;99.90
19344;DHT22;9808;52.402;16.678;2022-08-11T05:04:32;14.10;99.90
19344;DHT22;9808;52.402;16.678;2022-08-11T05:07:47;14.20;99.90
19344;DHT22;9808;52.402;16.678;2022-08-11T05:13:27;15.20;99.90
19344;DHT22;9808;52.402;16.678;2022-08-11T05:16:17;15.80;99.90
19344;DHT22;9808;52.402;16.678;2022-08-11T05:19:04;16.20;99.90
19344;DHT22;9808;52.402;16.678;2022-08-11T05:21:56;16.80;99.90
19344;DHT22;9808;52.402;16.678;2022-08-11T05:24:42;17.30;99.90
19344;DHT22;9808;52.402;16.678;2022-08-11T05:27:36;17.60;99.90
19344;DHT22;9808;52.402;16.678;2022-08-11T05:30:28;17.80;99.90
19344;DHT22;9808;52.402;16.678;2022-08-11T05:33:55;18.00;99.90
19344;DHT22;9808;52.402;16.678;2022-08-11T05:36:46;18.10;99.90
19344;DHT22;9808;52.402;16.678;2022-08-11T05:39:16;18.20;99.90
19344;DHT22;9808;52.402;16.678;2022-08-11T05:42:05;18.30;99.90
19344;DHT22;9808;52.402;16.678;2022-08-11T05:45:11;18.20;99.90
19344;DHT22;9808;52.402;16.678;2022-08-11T05:48:17;18.30;99.90
19344;DHT22;9808;52.402;16.678;2022-08-11T05:51:03;18.60;99.90
19344;DHT22;9808;52.402;16.678;2022-08-11T05:53:58;18.80;99.90
19344;DHT22;9808;52.402;16.678;2022-08-11T05:56:59;18.70;99.90
19344;DHT22;9808;52.402;16.678;2022-08-11T05:59:28;18.90;99.90
19344;DHT22;9808;52.402;16.678;2022-08-11T06:02:03;19.10;99.90
19344;DHT22;9808;52.402;16.678;2022-08-11T06:04:31;19.30;99.90
19344;DHT22;9808;52.402;16.678;2022-08-11T06:07:07;19.30;99.90
19344;DHT22;9808;52.402;16.678;2022-08-11T06:09:36;19.40;99.90
19344;DHT22;9808;52.402;16.678;2022-08-11T06:12:17;19.50;99.90
19344;DHT22;9808;52.402;16.678;2022-08-11T06:14:49;19.60;99.90
19344;DHT22;9808;52.402;16.678;2022-08-11T06:17:27;19.60;99.90
19344;DHT22;9808;52.402;16.678;2022-08-11T06:20:05;19.70;99.90
19344;DHT22;9808;52.402;16.678;2022-08-11T06:22:38;19.80;99.90
19344;DHT22;9808;52.402;16.678;2022-08-11T06:25:08;19.90;99.90
19344;DHT22;9808;52.402;16.678;2022-08-11T06:27:37;19.90;99.90
19344;DHT22;9808;52.402;16.678;2022-08-11T06:30:05;20.00;99.90
19344;DHT22;9808;52.402;16.678;2022-08-11T06:32:44;20.00;99.90
19344;DHT22;9808;52.402;16.678;2022-08-11T06:35:20;20.10;99.90
19344;DHT22;9808;52.402;16.678;2022-08-11T06:37:52;20.10;99.90
19344;DHT22;9808;52.402;16.678;2022-08-11T06:40:52;20.20;99.90
19344;DHT22;9808;52.402;16.678;2022-08-11T06:44:03;20.30;99.90
19344;DHT22;9808;52.402;16.678;2022-08-11T06:46:34;20.40;99.90
19344;DHT22;9808;52.402;16.678;2022-08-11T06:49:06;20.50;99.90
19344;DHT22;9808;52.402;16.678;2022-08-11T06:51:55;20.60;99.90
19344;DHT22;9808;52.402;16.678;2022-08-11T06:54:39;20.70;99.90
19344;DHT22;9808;52.402;16.678;2022-08-11T06:57:13;20.80;99.90
19344;DHT22;9808;52.402;16.678;2022-08-11T07:00:00;20.80;99.90
19344;DHT22;9808;52.402;16.678;2022-08-11T07:14:22;21.40;99.90
19344;DHT22;9808;52.402;16.678;2022-08-11T07:17:16;21.50;99.90
19344;DHT22;9808;52.402;16.678;2022-08-11T07:19:53;21.50;99.90
19344;DHT22;9808;52.402;16.678;2022-08-11T07:22:40;21.60;99.90
19344;DHT22;9808;52.402;16.678;2022-08-11T07:25:28;21.60;99.90
19344;DHT22;9808;52.402;16.678;2022-08-11T07:28:27;21.70;99.90
19344;DHT22;9808;52.402;16.678;2022-08-11T07:31:17;21.80;99.90
19344;DHT22;9808;52.402;16.678;2022-08-11T07:33:50;21.90;99.90
19344;DHT22;9808;52.402;16.678;2022-08-11T07:36:39;21.90;99.90
19344;DHT22;9808;52.402;16.678;2022-08-11T07:39:14;22.00;99.90
19344;DHT22;9808;52.402;16.678;2022-08-11T07:41:42;22.10;99.90
19344;DHT22;9808;52.402;16.678;2022-08-11T07:44:09;22.10;99.90
19344;DHT22;9808;52.402;16.678;2022-08-11T07:46:42;22.10;99.90
19344;DHT22;9808;52.402;16.678;2022-08-11T07:49:34;22.20;99.90
19344;DHT22;9808;52.402;16.678;2022-08-11T07:52:20;22.30;99.90
19344;DHT22;9808;52.402;16.678;2022-08-11T07:55:14;22.40;99.90
19344;DHT22;9808;52.402;16.678;2022-08-11T07:57:46;22.50;99.90
19344;DHT22;9808;52.402;16.678;2022-08-11T08:00:55;22.60;99.90
19344;DHT22;9808;52.402;16.678;2022-08-11T08:03:48;22.70;99.90
19344;DHT22;9808;52.402;16.678;2022-08-11T08:06:35;22.70;99.90
19344;DHT22;9808;52.402;16.678;2022-08-11T08:09:22;22.80;99.90
19344;DHT22;9808;52.402;16.678;2022-08-11T08:12:09;23.00;99.90
19344;DHT22;9808;52.402;16.678;2022-08-11T08:14:57;23.00;99.90
19344;DHT22;9808;52.402;16.678;2022-08-11T08:17:43;23.10;99.90
19344;DHT22;9808;52.402;16.678;2022-08-11T08:20:47;23.10;99.90
19344;DHT22;9808;52.402;16.678;2022-08-11T08:23:24;23.30;99.90
19344;DHT22;9808;52.402;16.678;2022-08-11T08:26:05;23.40;99.90
19344;DHT22;9808;52.402;16.678;2022-08-11T08:28:58;23.50;99.90
19344;DHT22;9808;52.402;16.678;2022-08-11T08:31:47;23.60;99.90
19344;DHT22;9808;52.402;16.678;2022-08-11T08:34:15;23.60;99.90
19344;DHT22;9808;52.402;16.678;2022-08-11T08:36:44;23.70;99.90
19344;DHT22;9808;52.402;16.678;2022-08-11T08:39:12;23.80;99.90
19344;DHT22;9808;52.402;16.678;2022-08-11T08:41:41;24.10;99.90
19344;DHT22;9808;52.402;16.678;2022-08-11T08:44:10;23.90;99.90
19344;DHT22;9808;52.402;16.678;2022-08-11T08:46:59;24.10;99.90
19344;DHT22;9808;52.402;16.678;2022-08-11T08:49:32;24.20;99.90
19344;DHT22;9808;52.402;16.678;2022-08-11T08:52:02;24.40;99.90
19344;DHT22;9808;52.402;16.678;2022-08-11T08:54:54;24.40;99.90
19344;DHT22;9808;52.402;16.678;2022-08-11T08:57:23;24.50;99.90
19344;DHT22;9808;52.402;16.678;2022-08-11T08:59:54;24.60;99.90
19344;DHT22;9808;52.402;16.678;2022-08-11T09:02:24;24.70;99.90
19344;DHT22;9808;52.402;16.678;2022-08-11T09:05:02;24.80;99.90
19344;DHT22;9808;52.402;16.678;2022-08-11T09:07:30;24.90;99.90
19344;DHT22;9808;52.402;16.678;2022-08-11T09:10:09;25.00;99.90
19344;DHT22;9808;52.402;16.678;2022-08-11T09:12:39;25.10;99.90
19344;DHT22;9808;52.402;16.678;2022-08-11T09:15:08;25.10;99.90
19344;DHT22;9808;52.402;16.678;2022-08-11T09:17:46;25.20;99.90
19344;DHT22;9808;52.402;16.678;2022-08-11T09:20:20;25.20;99.90
19344;DHT22;9808;52.402;16.678;2022-08-11T09:22:48;25.20;99.90
19344;DHT22;9808;52.402;16.678;2022-08-11T09:25:59;25.20;99.60
19344;DHT22;9808;52.402;16.678;2022-08-11T09:28:46;25.20;98.60
19344;DHT22;9808;52.402;16.678;2022-08-11T09:31:15;25.20;97.90
19344;DHT22;9808;52.402;16.678;2022-08-11T09:33:43;25.20;98.40
19344;DHT22;9808;52.402;16.678;2022-08-11T09:36:12;25.30;97.70
19344;DHT22;9808;52.402;16.678;2022-08-11T09:38:59;25.30;97.50
19344;DHT22;9808;52.402;16.678;2022-08-11T09:41:47;25.40;97.70
19344;DHT22;9808;52.402;16.678;2022-08-11T09:44:33;25.50;98.50
19344;DHT22;9808;52.402;16.678;2022-08-11T09:47:26;25.70;97.10
19344;DHT22;9808;52.402;16.678;2022-08-11T09:49:57;25.80;96.90
19344;DHT22;9808;52.402;16.678;2022-08-11T09:52:28;25.90;98.20
19344;DHT22;9808;52.402;16.678;2022-08-11T09:54:56;25.90;96.90
19344;DHT22;9808;52.402;16.678;2022-08-11T09:57:24;26.10;96.50
19344;DHT22;9808;52.402;16.678;2022-08-11T10:00:11;26.10;96.40
19344;DHT22;9808;52.402;16.678;2022-08-11T10:02:44;26.20;96.60
19344;DHT22;9808;52.402;16.678;2022-08-11T10:05:14;26.30;95.60
19344;DHT22;9808;52.402;16.678;2022-08-11T10:08:02;26.40;97.00
19344;DHT22;9808;52.402;16.678;2022-08-11T10:10:34;26.60;96.80
19344;DHT22;9808;52.402;16.678;2022-08-11T10:13:05;26.40;95.00
19344;DHT22;9808;52.402;16.678;2022-08-11T10:15:58;26.90;95.50
19344;DHT22;9808;52.402;16.678;2022-08-11T10:18:43;27.10;94.70
19344;DHT22;9808;52.402;16.678;2022-08-11T10:21:29;27.20;94.50
19344;DHT22;9808;52.402;16.678;2022-08-11T10:24:00;27.20;93.70
19344;DHT22;9808;52.402;16.678;2022-08-11T10:26:46;27.30;93.60
19344;DHT22;9808;52.402;16.678;2022-08-11T10:29:25;27.40;93.30
19344;DHT22;9808;52.402;16.678;2022-08-11T10:32:22;27.40;93.70
19344;DHT22;9808;52.402;16.678;2022-08-11T10:35:28;27.60;93.40
19344;DHT22;9808;52.402;16.678;2022-08-11T10:37:56;27.70;91.90
19344;DHT22;9808;52.402;16.678;2022-08-11T10:40:37;27.70;92.20
19344;DHT22;9808;52.402;16.678;2022-08-11T10:43:06;27.80;90.80
19344;DHT22;9808;52.402;16.678;2022-08-11T10:45:42;27.90;92.30
19344;DHT22;9808;52.402;16.678;2022-08-11T10:48:30;27.60;90.30
19344;DHT22;9808;52.402;16.678;2022-08-11T10:51:00;27.40;90.60
19344;DHT22;9808;52.402;16.678;2022-08-11T10:53:49;27.50;91.50
19344;DHT22;9808;52.402;16.678;2022-08-11T10:56:38;27.50;91.20
19344;DHT22;9808;52.402;16.678;2022-08-11T10:59:27;27.60;91.00
19344;DHT22;9808;52.402;16.678;2022-08-11T11:01:56;27.60;90.40
19344;DHT22;9808;52.402;16.678;2022-08-11T11:07:21;27.70;90.10
19344;DHT22;9808;52.402;16.678;2022-08-11T11:09:55;27.30;89.60
19344;DHT22;9808;52.402;16.678;2022-08-11T11:12:26;27.40;88.90
19344;DHT22;9808;52.402;16.678;2022-08-11T11:15:17;27.40;90.20
19344;DHT22;9808;52.402;16.678;2022-08-11T11:18:10;27.20;90.40
19344;DHT22;9808;52.402;16.678;2022-08-11T11:20:44;27.00;90.10
19344;DHT22;9808;52.402;16.678;2022-08-11T11:26:07;26.80;89.80
19344;DHT22;9808;52.402;16.678;2022-08-11T11:29:19;26.80;90.20
19344;DHT22;9808;52.402;16.678;2022-08-11T11:37:22;26.80;89.00
19344;DHT22;9808;52.402;16.678;2022-08-11T11:39:50;26.80;87.60
19344;DHT22;9808;52.402;16.678;2022-08-11T11:42:18;26.80;86.20
19344;DHT22;9808;52.402;16.678;2022-08-11T11:44:46;26.90;88.90
19344;DHT22;9808;52.402;16.678;2022-08-11T11:47:14;27.00;89.80
19344;DHT22;9808;52.402;16.678;2022-08-11T11:49:48;27.00;89.70
19344;DHT22;9808;52.402;16.678;2022-08-11T11:52:18;27.10;88.90
19344;DHT22;9808;52.402;16.678;2022-08-11T11:54:46;27.10;88.10
19344;DHT22;9808;52.402;16.678;2022-08-11T11:57:18;27.10;86.80
19344;DHT22;9808;52.402;16.678;2022-08-11T12:00:06;27.10;86.40
19344;DHT22;9808;52.402;16.678;2022-08-11T12:03:10;27.10;86.30
19344;DHT22;9808;52.402;16.678;2022-08-11T12:05:38;26.90;88.80
19344;DHT22;9808;52.402;16.678;2022-08-11T12:08:07;27.20;87.70
19344;DHT22;9808;52.402;16.678;2022-08-11T12:10:51;27.30;88.00
19344;DHT22;9808;52.402;16.678;2022-08-11T12:13:40;27.50;85.80
19344;DHT22;9808;52.402;16.678;2022-08-11T12:16:09;27.60;85.20
19344;DHT22;9808;52.402;16.678;2022-08-11T12:19:01;27.70;86.10
19344;DHT22;9808;52.402;16.678;2022-08-11T12:21:29;27.80;84.20
19344;DHT22;9808;52.402;16.678;2022-08-11T12:23:57;27.60;82.60
19344;DHT22;9808;52.402;16.678;2022-08-11T12:26:44;27.60;83.20
19344;DHT22;9808;52.402;16.678;2022-08-11T12:29:35;27.50;82.50
19344;DHT22;9808;52.402;16.678;2022-08-11T12:32:09;27.40;82.30
19344;DHT22;9808;52.402;16.678;2022-08-11T12:34:36;27.30;82.60
19344;DHT22;9808;52.402;16.678;2022-08-11T12:37:04;27.20;84.20
19344;DHT22;9808;52.402;16.678;2022-08-11T12:39:43;27.30;82.50
19344;DHT22;9808;52.402;16.678;2022-08-11T12:42:49;27.20;83.40
19344;DHT22;9808;52.402;16.678;2022-08-11T12:45:49;27.40;83.00
19344;DHT22;9808;52.402;16.678;2022-08-11T12:48:20;27.50;81.90
19344;DHT22;9808;52.402;16.678;2022-08-11T12:51:29;27.60;81.60
19344;DHT22;9808;52.402;16.678;2022-08-11T12:57:32;27.70;81.90
19344;DHT22;9808;52.402;16.678;2022-08-11T13:00:20;27.80;81.80
19344;DHT22;9808;52.402;16.678;2022-08-11T13:03:09;27.80;82.60
19344;DHT22;9808;52.402;16.678;2022-08-11T13:05:57;27.90;80.20
19344;DHT22;9808;52.402;16.678;2022-08-11T13:08:26;28.10;80.50
19344;DHT22;9808;52.402;16.678;2022-08-11T13:10:57;28.10;82.10
19344;DHT22;9808;52.402;16.678;2022-08-11T13:13:46;28.20;78.90
19344;DHT22;9808;52.402;16.678;2022-08-11T13:16:33;28.20;78.80
19344;DHT22;9808;52.402;16.678;2022-08-11T13:19:23;28.10;78.80
19344;DHT22;9808;52.402;16.678;2022-08-11T13:21:51;28.00;77.80
19344;DHT22;9808;52.402;16.678;2022-08-11T13:24:19;27.90;78.20
19344;DHT22;9808;52.402;16.678;2022-08-11T13:26:47;27.80;77.90
19344;DHT22;9808;52.402;16.678;2022-08-11T13:29:18;27.60;78.00
19344;DHT22;9808;52.402;16.678;2022-08-11T13:31:46;27.70;80.30
19344;DHT22;9808;52.402;16.678;2022-08-11T13:34:18;27.70;76.40
19344;DHT22;9808;52.402;16.678;2022-08-11T13:36:52;27.80;78.00
19344;DHT22;9808;52.402;16.678;2022-08-11T13:39:22;27.80;79.20
19344;DHT22;9808;52.402;16.678;2022-08-11T13:41:56;27.80;78.20
19344;DHT22;9808;52.402;16.678;2022-08-11T13:44:25;27.80;78.80
19344;DHT22;9808;52.402;16.678;2022-08-11T13:46:57;27.90;79.10
19344;DHT22;9808;52.402;16.678;2022-08-11T13:49:29;27.90;78.30
19344;DHT22;9808;52.402;16.678;2022-08-11T13:51:59;28.00;77.80
19344;DHT22;9808;52.402;16.678;2022-08-11T13:54:30;28.00;75.30
19344;DHT22;9808;52.402;16.678;2022-08-11T13:57:06;27.90;74.60
19344;DHT22;9808;52.402;16.678;2022-08-11T13:59:35;27.80;75.90
19344;DHT22;9808;52.402;16.678;2022-08-11T14:02:21;27.80;75.40
19344;DHT22;9808;52.402;16.678;2022-08-11T14:04:58;27.60;75.20
19344;DHT22;9808;52.402;16.678;2022-08-11T14:07:36;27.50;77.00
19344;DHT22;9808;52.402;16.678;2022-08-11T14:10:06;27.50;75.70
19344;DHT22;9808;52.402;16.678;2022-08-11T14:12:36;27.40;75.30
19344;DHT22;9808;52.402;16.678;2022-08-11T14:15:35;27.40;76.10
19344;DHT22;9808;52.402;16.678;2022-08-11T14:18:28;27.40;75.40
19344;DHT22;9808;52.402;16.678;2022-08-11T14:20:58;27.40;77.00
19344;DHT22;9808;52.402;16.678;2022-08-11T14:23:46;27.50;78.40
19344;DHT22;9808;52.402;16.678;2022-08-11T14:26:16;27.30;74.60
19344;DHT22;9808;52.402;16.678;2022-08-11T14:29:16;27.60;73.00
19344;DHT22;9808;52.402;16.678;2022-08-11T14:31:49;27.60;73.80
19344;DHT22;9808;52.402;16.678;2022-08-11T14:34:19;27.70;73.50
19344;DHT22;9808;52.402;16.678;2022-08-11T14:36:55;27.70;74.10
19344;DHT22;9808;52.402;16.678;2022-08-11T14:39:25;27.70;73.60
19344;DHT22;9808;52.402;16.678;2022-08-11T14:41:59;27.70;74.30
19344;DHT22;9808;52.402;16.678;2022-08-11T14:44:47;27.70;74.60
19344;DHT22;9808;52.402;16.678;2022-08-11T14:47:35;27.70;74.50
19344;DHT22;9808;52.402;16.678;2022-08-11T14:50:04;27.60;74.90
19344;DHT22;9808;52.402;16.678;2022-08-11T14:52:41;27.60;75.00
19344;DHT22;9808;52.402;16.678;2022-08-11T14:55:10;27.60;74.00
19344;DHT22;9808;52.402;16.678;2022-08-11T14:57:56;27.60;72.40
19344;DHT22;9808;52.402;16.678;2022-08-11T15:00:24;27.60;71.20
19344;DHT22;9808;52.402;16.678;2022-08-11T15:02:53;27.50;70.70
19344;DHT22;9808;52.402;16.678;2022-08-11T15:05:53;27.50;71.50
19344;DHT22;9808;52.402;16.678;2022-08-11T15:08:44;27.50;72.20
19344;DHT22;9808;52.402;16.678;2022-08-11T15:11:28;27.50;72.90
19344;DHT22;9808;52.402;16.678;2022-08-11T15:14:15;27.60;71.90
19344;DHT22;9808;52.402;16.678;2022-08-11T15:17:04;27.60;72.80
19344;DHT22;9808;52.402;16.678;2022-08-11T15:19:40;27.70;72.10
19344;DHT22;9808;52.402;16.678;2022-08-11T15:22:26;27.80;71.60
19344;DHT22;9808;52.402;16.678;2022-08-11T15:25:12;27.80;72.90
19344;DHT22;9808;52.402;16.678;2022-08-11T15:27:40;27.80;73.80
19344;DHT22;9808;52.402;16.678;2022-08-11T15:30:26;27.90;73.20
19344;DHT22;9808;52.402;16.678;2022-08-11T15:33:14;27.80;72.80
19344;DHT22;9808;52.402;16.678;2022-08-11T15:36:04;27.80;72.90
19344;DHT22;9808;52.402;16.678;2022-08-11T15:38:58;27.70;74.30
19344;DHT22;9808;52.402;16.678;2022-08-11T15:45:08;27.70;71.80
19344;DHT22;9808;52.402;16.678;2022-08-11T15:48:05;27.60;72.00
19344;DHT22;9808;52.402;16.678;2022-08-11T15:50:40;27.60;71.60
19344;DHT22;9808;52.402;16.678;2022-08-11T15:53:29;27.60;71.70
19344;DHT22;9808;52.402;16.678;2022-08-11T15:55:59;27.60;72.90
19344;DHT22;9808;52.402;16.678;2022-08-11T15:58:32;27.60;72.60
19344;DHT22;9808;52.402;16.678;2022-08-11T16:01:39;27.60;72.00
19344;DHT22;9808;52.402;16.678;2022-08-11T16:04:28;27.60;72.20
19344;DHT22;9808;52.402;16.678;2022-08-11T16:07:04;28.50;73.60
19344;DHT22;9808;52.402;16.678;2022-08-11T16:10:03;27.70;72.50
19344;DHT22;9808;52.402;16.678;2022-08-11T16:12:39;27.60;72.10
19344;DHT22;9808;52.402;16.678;2022-08-11T16:15:09;27.60;71.90
19344;DHT22;9808;52.402;16.678;2022-08-11T16:18:05;27.60;72.50
19344;DHT22;9808;52.402;16.678;2022-08-11T16:20:33;27.60;72.30
19344;DHT22;9808;52.402;16.678;2022-08-11T16:23:03;27.50;72.70
19344;DHT22;9808;52.402;16.678;2022-08-11T16:25:36;27.40;71.50
19344;DHT22;9808;52.402;16.678;2022-08-11T16:28:23;27.20;72.50
19344;DHT22;9808;52.402;16.678;2022-08-11T16:30:51;27.10;73.70
19344;DHT22;9808;52.402;16.678;2022-08-11T16:33:20;27.20;73.60
19344;DHT22;9808;52.402;16.678;2022-08-11T16:36:10;27.00;72.80
19344;DHT22;9808;52.402;16.678;2022-08-11T16:38:57;26.90;72.60
19344;DHT22;9808;52.402;16.678;2022-08-11T16:41:28;26.90;73.10
19344;DHT22;9808;52.402;16.678;2022-08-11T16:44:15;26.90;73.20
19344;DHT22;9808;52.402;16.678;2022-08-11T16:47:05;26.80;73.20
19344;DHT22;9808;52.402;16.678;2022-08-11T16:49:36;26.80;71.60
19344;DHT22;9808;52.402;16.678;2022-08-11T16:52:05;26.80;72.90
19344;DHT22;9808;52.402;16.678;2022-08-11T16:54:38;26.80;71.60
19344;DHT22;9808;52.402;16.678;2022-08-11T16:57:14;26.70;73.50
19344;DHT22;9808;52.402;16.678;2022-08-11T17:00:06;26.70;73.80
19344;DHT22;9808;52.402;16.678;2022-08-11T17:02:39;26.70;72.60
19344;DHT22;9808;52.402;16.678;2022-08-11T17:05:26;26.60;72.80
19344;DHT22;9808;52.402;16.678;2022-08-11T17:08:28;26.60;72.00
19344;DHT22;9808;52.402;16.678;2022-08-11T17:11:25;26.50;72.90
19344;DHT22;9808;52.402;16.678;2022-08-11T17:14:20;26.40;72.30
19344;DHT22;9808;52.402;16.678;2022-08-11T17:17:03;26.40;72.70
19344;DHT22;9808;52.402;16.678;2022-08-11T17:19:32;26.30;73.70
19344;DHT22;9808;52.402;16.678;2022-08-11T17:22:20;26.20;73.20
19344;DHT22;9808;52.402;16.678;2022-08-11T17:25:08;26.20;73.50
19344;DHT22;9808;52.402;16.678;2022-08-11T17:27:36;26.10;74.50
19344;DHT22;9808;52.402;16.678;2022-08-11T17:30:05;26.00;74.00
19344;DHT22;9808;52.402;16.678;2022-08-11T17:32:40;25.90;74.20
19344;DHT22;9808;52.402;16.678;2022-08-11T17:35:31;25.90;75.60
19344;DHT22;9808;52.402;16.678;2022-08-11T17:38:14;25.80;76.00
19344;DHT22;9808;52.402;16.678;2022-08-11T17:40:49;25.80;76.10
19344;DHT22;9808;52.402;16.678;2022-08-11T17:43:45;25.70;76.40
19344;DHT22;9808;52.402;16.678;2022-08-11T17:46:31;25.60;77.00
19344;DHT22;9808;52.402;16.678;2022-08-11T17:49:18;25.60;77.60
19344;DHT22;9808;52.402;16.678;2022-08-11T17:51:47;25.50;78.60
19344;DHT22;9808;52.402;16.678;2022-08-11T17:54:35;25.40;78.50
19344;DHT22;9808;52.402;16.678;2022-08-11T17:57:22;25.30;79.50
19344;DHT22;9808;52.402;16.678;2022-08-11T18:00:13;25.20;79.80
19344;DHT22;9808;52.402;16.678;2022-08-11T18:02:45;25.20;79.20
19344;DHT22;9808;52.402;16.678;2022-08-11T18:05:35;25.10;80.60
19344;DHT22;9808;52.402;16.678;2022-08-11T18:08:05;25.00;80.80
19344;DHT22;9808;52.402;16.678;2022-08-11T18:10:53;24.90;81.70
19344;DHT22;9808;52.402;16.678;2022-08-11T18:14:04;24.80;82.40
19344;DHT22;9808;52.402;16.678;2022-08-11T18:16:50;24.70;82.80
19344;DHT22;9808;52.402;16.678;2022-08-11T18:19:36;24.60;82.80
19344;DHT22;9808;52.402;16.678;2022-08-11T18:22:23;24.50;84.10
19344;DHT22;9808;52.402;16.678;2022-08-11T18:25:16;24.40;83.70
19344;DHT22;9808;52.402;16.678;2022-08-11T18:28:11;24.30;84.50
19344;DHT22;9808;52.402;16.678;2022-08-11T18:31:00;24.10;84.90
19344;DHT22;9808;52.402;16.678;2022-08-11T18:33:57;24.00;84.70
19344;DHT22;9808;52.402;16.678;2022-08-11T18:36:55;23.90;86.10
19344;DHT22;9808;52.402;16.678;2022-08-11T18:39:55;23.80;85.30
19344;DHT22;9808;52.402;16.678;2022-08-11T18:42:43;23.70;85.70
19344;DHT22;9808;52.402;16.678;2022-08-11T18:45:31;23.60;86.00
19344;DHT22;9808;52.402;16.678;2022-08-11T18:48:35;23.50;86.10
19344;DHT22;9808;52.402;16.678;2022-08-11T18:51:23;23.40;86.60
19344;DHT22;9808;52.402;16.678;2022-08-11T18:54:11;23.30;87.10
19344;DHT22;9808;52.402;16.678;2022-08-11T18:57:01;23.20;88.00
19344;DHT22;9808;52.402;16.678;2022-08-11T18:59:49;23.00;88.60
19344;DHT22;9808;52.402;16.678;2022-08-11T19:02:38;22.90;89.10
19344;DHT22;9808;52.402;16.678;2022-08-11T19:05:24;22.80;89.10
19344;DHT22;9808;52.402;16.678;2022-08-11T19:08:39;22.70;89.50
19344;DHT22;9808;52.402;16.678;2022-08-11T19:11:28;22.50;90.10
19344;DHT22;9808;52.402;16.678;2022-08-11T19:14:16;22.40;90.00
19344;DHT22;9808;52.402;16.678;2022-08-11T19:17:03;22.30;90.20
19344;DHT22;9808;52.402;16.678;2022-08-11T19:20:15;22.20;90.50
19344;DHT22;9808;52.402;16.678;2022-08-11T19:23:02;22.10;90.60
19344;DHT22;9808;52.402;16.678;2022-08-11T19:25:49;22.00;90.60
19344;DHT22;9808;52.402;16.678;2022-08-11T19:28:38;21.80;91.00
19344;DHT22;9808;52.402;16.678;2022-08-11T19:31:24;21.70;91.00
19344;DHT22;9808;52.402;16.678;2022-08-11T19:34:17;21.60;91.20
19344;DHT22;9808;52.402;16.678;2022-08-11T19:37:05;21.60;91.50